sensor_id;sensor_type;location;lat;lon;timestamp;P1;durP1;ratioP1;P2;durP2;ratioP2
13309;SDS011;6723;48.256;16.402;2024-02-14T00:02:17;6.57;;;4.30;;
13309;SDS011;6723;48.256;16.402;2024-02-14T00:04:43;5.37;;;4.47;;
13309;SDS011;6723;48.256;16.402;2024-02-14T00:07:10;5.90;;;4.73;;
13309;SDS011;6723;48.256;16.402;2024-02-14T00:09:36;5.27;;;4.27;;
13309;SDS011;6723;48.256;16.402;2024-02-14T00:12:02;6.00;;;4.73;;
13309;SDS011;6723;48.256;16.402;2024-02-14T00:14:28;6.43;;;4.40;;
13309;SDS011;6723;48.256;16.402;2024-02-14T00:16:54;8.00;;;4.80;;
13309;SDS011;6723;48.256;16.402;2024-02-14T00:19:19;5.30;;;4.80;;
13309;SDS011;6723;48.256;16.402;2024-02-14T00:21:45;6.93;;;4.53;;
13309;SDS011;6723;48.256;16.402;2024-02-14T00:24:11;5.53;;;4.63;;
13309;SDS011;6723;48.256;16.402;2024-02-14T00:26:37;5.60;;;4.37;;
13309;SDS011;6723;48.256;16.402;2024-02-14T00:29:04;5.00;;;4.17;;
13309;SDS011;6723;48.256;16.402;2024-02-14T00:31:30;6.30;;;4.47;;
13309;SDS011;6723;48.256;16.402;2024-02-14T00:33:58;6.20;;;4.50;;
13309;SDS011;6723;48.256;16.402;2024-02-14T00:36:24;6.50;;;4.67;;
13309;SDS011;6723;48.256;16.402;2024-02-14T00:38:50;8.37;;;4.90;;
13309;SDS011;6723;48.256;16.402;2024-02-14T00:41:16;8.07;;;4.70;;
13309;SDS011;6723;48.256;16.402;2024-02-14T00:43:42;6.83;;;4.70;;
13309;SDS011;6723;48.256;16.402;2024-02-14T00:46:08;6.67;;;4.43;;
13309;SDS011;6723;48.256;16.402;2024-02-14T00:48:34;7.17;;;4.50;;
13309;SDS011;6723;48.256;16.402;2024-02-14T00:51:00;6.00;;;4.33;;
13309;SDS011;6723;48.256;16.402;2024-02-14T00:53:26;5.97;;;4.67;;
13309;SDS011;6723;48.256;16.402;2024-02-14T00:55:51;6.27;;;5.03;;
13309;SDS011;6723;48.256;16.402;2024-02-14T00:58:17;9.07;;;4.77;;
13309;SDS011;6723;48.256;16.402;2024-02-14T01:00:43;7.33;;;4.67;;
13309;SDS011;6723;48.256;16.402;2024-02-14T01:03:09;8.57;;;5.17;;
13309;SDS011;6723;48.256;16.402;2024-02-14T01:05:38;8.20;;;4.87;;
13309;SDS011;6723;48.256;16.402;2024-02-14T01:08:04;6.70;;;4.70;;
13309;SDS011;6723;48.256;16.402;2024-02-14T01:10:30;5.40;;;4.60;;
13309;SDS011;6723;48.256;16.402;2024-02-14T01:12:56;5.53;;;4.73;;
13309;SDS011;6723;48.256;16.402;2024-02-14T01:15:22;8.33;;;4.53;;
13309;SDS011;6723;48.256;16.402;2024-02-14T01:17:48;7.27;;;5.30;;
13309;SDS011;6723;48.256;16.402;2024-02-14T01:20:14;6.23;;;4.53;;
13309;SDS011;6723;48.256;16.402;2024-02-14T01:22:40;9.53;;;5.27;;
13309;SDS011;6723;48.256;16.402;2024-02-14T01:25:06;6.87;;;4.80;;
13309;SDS011;6723;48.256;16.402;2024-02-14T01:27:35;6.80;;;4.47;;
13309;SDS011;6723;48.256;16.402;2024-02-14T01:30:01;9.87;;;4.97;;
13309;SDS011;6723;48.256;16.402;2024-02-14T01:32:27;5.73;;;4.73;;
13309;SDS011;6723;48.256;16.402;2024-02-14T01:34:54;6.87;;;5.07;;
13309;SDS011;6723;48.256;16.402;2024-02-14T01:37:20;7.53;;;4.93;;
13309;SDS011;6723;48.256;16.402;2024-02-14T01:39:46;7.20;;;4.63;;
13309;SDS011;6723;48.256;16.402;2024-02-14T01:42:12;6.50;;;4.70;;
13309;SDS011;6723;48.256;16.402;2024-02-14T01:44:38;6.47;;;4.67;;
13309;SDS011;6723;48.256;16.402;2024-02-14T01:47:04;5.40;;;4.87;;
13309;SDS011;6723;48.256;16.402;2024-02-14T01:49:31;10.03;;;5.13;;
13309;SDS011;6723;48.256;16.402;2024-02-14T01:51:59;8.77;;;4.97;;
13309;SDS011;6723;48.256;16.402;2024-02-14T01:54:28;10.27;;;5.43;;
13309;SDS011;6723;48.256;16.402;2024-02-14T01:56:55;7.03;;;5.40;;
13309;SDS011;6723;48.256;16.402;2024-02-14T01:59:24;5.67;;;4.40;;
13309;SDS011;6723;48.256;16.402;2024-02-14T02:01:50;8.07;;;5.23;;
13309;SDS011;6723;48.256;16.402;2024-02-14T02:04:19;8.60;;;5.37;;
13309;SDS011;6723;48.256;16.402;2024-02-14T02:06:46;8.37;;;4.77;;
13309;SDS011;6723;48.256;16.402;2024-02-14T02:09:12;6.90;;;5.43;;
13309;SDS011;6723;48.256;16.402;2024-02-14T02:11:44;6.37;;;5.37;;
13309;SDS011;6723;48.256;16.402;2024-02-14T02:14:14;6.30;;;4.80;;
13309;SDS011;6723;48.256;16.402;2024-02-14T02:16:41;7.27;;;5.17;;
13309;SDS011;6723;48.256;16.402;2024-02-14T02:19:08;8.80;;;5.00;;
13309;SDS011;6723;48.256;16.402;2024-02-14T02:21:35;6.63;;;5.20;;
13309;SDS011;6723;48.256;16.402;2024-02-14T02:24:01;6.90;;;4.87;;
13309;SDS011;6723;48.256;16.402;2024-02-14T02:26:27;7.00;;;4.73;;
13309;SDS011;6723;48.256;16.402;2024-02-14T02:28:53;7.17;;;4.67;;
13309;SDS011;6723;48.256;16.402;2024-02-14T02:31:19;7.03;;;4.93;;
13309;SDS011;6723;48.256;16.402;2024-02-14T02:33:46;8.13;;;4.63;;
13309;SDS011;6723;48.256;16.402;2024-02-14T02:36:12;7.87;;;4.60;;
13309;SDS011;6723;48.256;16.402;2024-02-14T02:38:38;8.67;;;4.57;;
13309;SDS011;6723;48.256;16.402;2024-02-14T02:41:05;6.07;;;4.90;;
13309;SDS011;6723;48.256;16.402;2024-02-14T02:43:32;8.63;;;4.50;;
13309;SDS011;6723;48.256;16.402;2024-02-14T02:45:58;7.13;;;4.70;;
13309;SDS011;6723;48.256;16.402;2024-02-14T02:48:24;6.97;;;4.67;;
13309;SDS011;6723;48.256;16.402;2024-02-14T02:50:51;6.80;;;4.77;;
13309;SDS011;6723;48.256;16.402;2024-02-14T02:53:18;6.20;;;4.90;;
13309;SDS011;6723;48.256;16.402;2024-02-14T02:55:44;7.07;;;4.80;;
13309;SDS011;6723;48.256;16.402;2024-02-14T02:58:10;5.80;;;4.80;;
13309;SDS011;6723;48.256;16.402;2024-02-14T03:00:36;6.73;;;4.30;;
13309;SDS011;6723;48.256;16.402;2024-02-14T03:03:02;12.00;;;4.53;;
13309;SDS011;6723;48.256;16.402;2024-02-14T03:05:33;7.60;;;4.50;;
13309;SDS011;6723;48.256;16.402;2024-02-14T03:08:00;5.93;;;3.97;;
13309;SDS011;6723;48.256;16.402;2024-02-14T03:10:26;7.30;;;4.50;;
13309;SDS011;6723;48.256;16.402;2024-02-14T03:12:52;7.13;;;3.90;;
13309;SDS011;6723;48.256;16.402;2024-02-14T03:15:18;5.20;;;4.27;;
13309;SDS011;6723;48.256;16.402;2024-02-14T03:17:45;7.60;;;4.50;;
13309;SDS011;6723;48.256;16.402;2024-02-14T03:20:11;6.33;;;4.40;;
13309;SDS011;6723;48.256;16.402;2024-02-14T03:22:39;5.80;;;4.27;;
13309;SDS011;6723;48.256;16.402;2024-02-14T03:25:11;6.77;;;4.17;;
13309;SDS011;6723;48.256;16.402;2024-02-14T03:27:44;5.33;;;4.60;;
13309;SDS011;6723;48.256;16.402;2024-02-14T03:30:12;7.73;;;4.73;;
13309;SDS011;6723;48.256;16.402;2024-02-14T03:32:41;5.63;;;4.87;;
13309;SDS011;6723;48.256;16.402;2024-02-14T03:35:08;6.87;;;4.50;;
13309;SDS011;6723;48.256;16.402;2024-02-14T03:37:37;5.77;;;4.20;;
13309;SDS011;6723;48.256;16.402;2024-02-14T03:40:04;5.73;;;4.50;;
13309;SDS011;6723;48.256;16.402;2024-02-14T03:42:32;7.70;;;4.60;;
13309;SDS011;6723;48.256;16.402;2024-02-14T03:44:59;5.00;;;3.83;;
13309;SDS011;6723;48.256;16.402;2024-02-14T03:47:31;6.80;;;4.37;;
13309;SDS011;6723;48.256;16.402;2024-02-14T03:50:00;6.03;;;4.23;;
13309;SDS011;6723;48.256;16.402;2024-02-14T03:52:29;9.10;;;4.37;;
13309;SDS011;6723;48.256;16.402;2024-02-14T03:54:57;6.37;;;4.33;;
13309;SDS011;6723;48.256;16.402;2024-02-14T03:57:24;5.93;;;3.87;;
13309;SDS011;6723;48.256;16.402;2024-02-14T03:59:53;8.43;;;4.60;;
13309;SDS011;6723;48.256;16.402;2024-02-14T04:02:21;5.40;;;4.33;;
13309;SDS011;6723;48.256;16.402;2024-02-14T04:04:48;6.80;;;4.47;;
13309;SDS011;6723;48.256;16.402;2024-02-14T04:07:14;7.87;;;4.67;;
13309;SDS011;6723;48.256;16.402;2024-02-14T04:09:41;6.87;;;4.67;;
13309;SDS011;6723;48.256;16.402;2024-02-14T04:12:07;5.77;;;4.73;;
13309;SDS011;6723;48.256;16.402;2024-02-14T04:14:35;7.60;;;5.60;;
13309;SDS011;6723;48.256;16.402;2024-02-14T04:17:01;9.03;;;5.63;;
13309;SDS011;6723;48.256;16.402;2024-02-14T04:19:26;7.47;;;6.17;;
13309;SDS011;6723;48.256;16.402;2024-02-14T04:21:53;9.60;;;5.90;;
13309;SDS011;6723;48.256;16.402;2024-02-14T04:24:19;7.60;;;6.00;;
13309;SDS011;6723;48.256;16.402;2024-02-14T04:26:45;7.03;;;5.57;;
13309;SDS011;6723;48.256;16.402;2024-02-14T04:29:14;7.37;;;5.97;;
13309;SDS011;6723;48.256;16.402;2024-02-14T04:31:40;7.50;;;5.83;;
13309;SDS011;6723;48.256;16.402;2024-02-14T04:34:08;7.77;;;5.13;;
13309;SDS011;6723;48.256;16.402;2024-02-14T04:36:35;10.60;;;6.17;;
13309;SDS011;6723;48.256;16.402;2024-02-14T04:39:01;9.87;;;5.43;;
13309;SDS011;6723;48.256;16.402;2024-02-14T04:41:28;9.67;;;7.10;;
13309;SDS011;6723;48.256;16.402;2024-02-14T04:43:54;9.03;;;6.40;;
13309;SDS011;6723;48.256;16.402;2024-02-14T04:46:20;7.13;;;6.23;;
13309;SDS011;6723;48.256;16.402;2024-02-14T04:48:47;8.67;;;6.00;;
13309;SDS011;6723;48.256;16.402;2024-02-14T04:51:13;9.67;;;5.93;;
13309;SDS011;6723;48.256;16.402;2024-02-14T04:53:39;9.73;;;6.13;;
13309;SDS011;6723;48.256;16.402;2024-02-14T04:56:05;8.90;;;5.60;;
13309;SDS011;6723;48.256;16.402;2024-02-14T04:58:32;7.80;;;5.87;;
13309;SDS011;6723;48.256;16.402;2024-02-14T05:00:58;6.87;;;4.93;;
13309;SDS011;6723;48.256;16.402;2024-02-14T05:03:24;7.23;;;5.57;;
13309;SDS011;6723;48.256;16.402;2024-02-14T05:05:51;8.37;;;5.97;;
13309;SDS011;6723;48.256;16.402;2024-02-14T05:08:16;6.77;;;5.17;;
13309;SDS011;6723;48.256;16.402;2024-02-14T05:10:42;8.07;;;5.77;;
13309;SDS011;6723;48.256;16.402;2024-02-14T05:13:08;9.30;;;5.80;;
13309;SDS011;6723;48.256;16.402;2024-02-14T05:15:34;8.00;;;6.13;;
13309;SDS011;6723;48.256;16.402;2024-02-14T05:18:00;6.63;;;5.53;;
13309;SDS011;6723;48.256;16.402;2024-02-14T05:20:26;6.77;;;5.60;;
13309;SDS011;6723;48.256;16.402;2024-02-14T05:22:52;8.83;;;5.90;;
13309;SDS011;6723;48.256;16.402;2024-02-14T05:25:18;13.23;;;7.37;;
13309;SDS011;6723;48.256;16.402;2024-02-14T05:27:44;11.20;;;7.13;;
13309;SDS011;6723;48.256;16.402;2024-02-14T05:30:12;8.60;;;6.20;;
13309;SDS011;6723;48.256;16.402;2024-02-14T05:32:38;10.73;;;6.30;;
13309;SDS011;6723;48.256;16.402;2024-02-14T05:35:05;12.80;;;6.27;;
13309;SDS011;6723;48.256;16.402;2024-02-14T05:37:31;9.40;;;6.40;;
13309;SDS011;6723;48.256;16.402;2024-02-14T05:39:57;9.53;;;6.40;;
13309;SDS011;6723;48.256;16.402;2024-02-14T05:42:23;7.63;;;5.80;;
13309;SDS011;6723;48.256;16.402;2024-02-14T05:44:49;9.40;;;6.63;;
13309;SDS011;6723;48.256;16.402;2024-02-14T05:47:17;11.23;;;6.50;;
13309;SDS011;6723;48.256;16.402;2024-02-14T05:49:44;7.83;;;5.70;;
13309;SDS011;6723;48.256;16.402;2024-02-14T05:52:10;8.30;;;6.50;;
13309;SDS011;6723;48.256;16.402;2024-02-14T05:54:36;8.07;;;6.73;;
13309;SDS011;6723;48.256;16.402;2024-02-14T05:57:02;12.37;;;7.10;;
13309;SDS011;6723;48.256;16.402;2024-02-14T05:59:28;9.90;;;5.97;;
13309;SDS011;6723;48.256;16.402;2024-02-14T06:01:54;9.47;;;6.53;;
13309;SDS011;6723;48.256;16.402;2024-02-14T06:04:20;14.23;;;6.60;;
13309;SDS011;6723;48.256;16.402;2024-02-14T06:06:46;10.77;;;6.60;;
13309;SDS011;6723;48.256;16.402;2024-02-14T06:09:11;12.97;;;6.80;;
13309;SDS011;6723;48.256;16.402;2024-02-14T06:11:37;7.83;;;6.37;;
13309;SDS011;6723;48.256;16.402;2024-02-14T06:14:07;8.90;;;6.23;;
13309;SDS011;6723;48.256;16.402;2024-02-14T06:16:34;11.77;;;6.63;;
13309;SDS011;6723;48.256;16.402;2024-02-14T06:19:00;12.10;;;6.87;;
13309;SDS011;6723;48.256;16.402;2024-02-14T06:21:29;14.27;;;6.73;;
13309;SDS011;6723;48.256;16.402;2024-02-14T06:23:55;7.53;;;5.97;;
13309;SDS011;6723;48.256;16.402;2024-02-14T06:26:23;15.10;;;6.53;;
13309;SDS011;6723;48.256;16.402;2024-02-14T06:28:49;11.33;;;6.20;;
13309;SDS011;6723;48.256;16.402;2024-02-14T06:31:19;13.07;;;6.13;;
13309;SDS011;6723;48.256;16.402;2024-02-14T06:33:47;7.83;;;6.07;;
13309;SDS011;6723;48.256;16.402;2024-02-14T06:36:13;7.93;;;6.13;;
13309;SDS011;6723;48.256;16.402;2024-02-14T06:38:39;8.47;;;6.57;;
13309;SDS011;6723;48.256;16.402;2024-02-14T06:41:05;9.07;;;6.50;;
13309;SDS011;6723;48.256;16.402;2024-02-14T06:43:31;9.03;;;6.67;;
13309;SDS011;6723;48.256;16.402;2024-02-14T06:45:57;10.60;;;6.17;;
13309;SDS011;6723;48.256;16.402;2024-02-14T06:48:23;10.67;;;6.53;;
13309;SDS011;6723;48.256;16.402;2024-02-14T06:50:50;7.80;;;5.97;;
13309;SDS011;6723;48.256;16.402;2024-02-14T06:53:17;8.40;;;6.30;;
13309;SDS011;6723;48.256;16.402;2024-02-14T06:55:43;11.13;;;6.60;;
13309;SDS011;6723;48.256;16.402;2024-02-14T06:58:09;8.53;;;6.53;;
13309;SDS011;6723;48.256;16.402;2024-02-14T07:00:35;10.37;;;6.83;;
13309;SDS011;6723;48.256;16.402;2024-02-14T07:03:00;11.30;;;6.73;;
13309;SDS011;6723;48.256;16.402;2024-02-14T07:05:26;12.87;;;6.90;;
13309;SDS011;6723;48.256;16.402;2024-02-14T07:07:54;15.40;;;6.37;;
13309;SDS011;6723;48.256;16.402;2024-02-14T07:10:20;9.53;;;6.47;;
13309;SDS011;6723;48.256;16.402;2024-02-14T07:12:46;11.07;;;6.37;;
13309;SDS011;6723;48.256;16.402;2024-02-14T07:15:12;10.90;;;6.27;;
13309;SDS011;6723;48.256;16.402;2024-02-14T07:17:38;9.47;;;6.90;;
13309;SDS011;6723;48.256;16.402;2024-02-14T07:20:05;11.13;;;6.47;;
13309;SDS011;6723;48.256;16.402;2024-02-14T07:22:34;8.37;;;6.53;;
13309;SDS011;6723;48.256;16.402;2024-02-14T07:25:02;10.43;;;7.17;;
13309;SDS011;6723;48.256;16.402;2024-02-14T07:27:30;12.87;;;7.13;;
13309;SDS011;6723;48.256;16.402;2024-02-14T07:29:56;11.17;;;6.70;;
13309;SDS011;6723;48.256;16.402;2024-02-14T07:32:21;12.10;;;7.03;;
13309;SDS011;6723;48.256;16.402;2024-02-14T07:34:47;15.80;;;7.10;;
13309;SDS011;6723;48.256;16.402;2024-02-14T07:37:13;11.47;;;7.33;;
13309;SDS011;6723;48.256;16.402;2024-02-14T07:39:41;16.30;;;7.20;;
13309;SDS011;6723;48.256;16.402;2024-02-14T07:42:07;10.13;;;7.33;;
13309;SDS011;6723;48.256;16.402;2024-02-14T07:44:33;15.40;;;7.73;;
13309;SDS011;6723;48.256;16.402;2024-02-14T07:46:59;13.70;;;7.73;;
13309;SDS011;6723;48.256;16.402;2024-02-14T07:49:24;19.13;;;7.83;;
13309;SDS011;6723;48.256;16.402;2024-02-14T07:51:50;12.53;;;7.83;;
13309;SDS011;6723;48.256;16.402;2024-02-14T07:54:16;14.83;;;7.43;;
13309;SDS011;6723;48.256;16.402;2024-02-14T07:56:41;12.20;;;7.40;;
13309;SDS011;6723;48.256;16.402;2024-02-14T07:59:07;13.17;;;7.27;;
13309;SDS011;6723;48.256;16.402;2024-02-14T08:01:33;15.37;;;7.37;;
13309;SDS011;6723;48.256;16.402;2024-02-14T08:03:59;11.77;;;7.10;;
13309;SDS011;6723;48.256;16.402;2024-02-14T08:06:25;13.43;;;7.10;;
13309;SDS011;6723;48.256;16.402;2024-02-14T08:08:51;9.60;;;6.27;;
13309;SDS011;6723;48.256;16.402;2024-02-14T08:11:22;7.77;;;6.13;;
13309;SDS011;6723;48.256;16.402;2024-02-14T08:13:48;11.10;;;6.43;;
13309;SDS011;6723;48.256;16.402;2024-02-14T08:16:13;10.00;;;6.47;;
13309;SDS011;6723;48.256;16.402;2024-02-14T08:18:39;9.97;;;5.87;;
13309;SDS011;6723;48.256;16.402;2024-02-14T08:21:09;8.53;;;5.87;;
13309;SDS011;6723;48.256;16.402;2024-02-14T08:23:35;8.17;;;6.00;;
13309;SDS011;6723;48.256;16.402;2024-02-14T08:26:04;7.70;;;5.93;;
13309;SDS011;6723;48.256;16.402;2024-02-14T08:28:35;10.57;;;6.17;;
13309;SDS011;6723;48.256;16.402;2024-02-14T08:31:02;10.53;;;5.90;;
13309;SDS011;6723;48.256;16.402;2024-02-14T08:33:28;6.83;;;5.70;;
13309;SDS011;6723;48.256;16.402;2024-02-14T08:35:54;10.20;;;6.53;;
13309;SDS011;6723;48.256;16.402;2024-02-14T08:38:22;10.63;;;5.97;;
13309;SDS011;6723;48.256;16.402;2024-02-14T08:40:48;11.50;;;6.20;;
13309;SDS011;6723;48.256;16.402;2024-02-14T08:43:14;13.70;;;6.80;;
13309;SDS011;6723;48.256;16.402;2024-02-14T08:45:39;12.93;;;7.50;;
13309;SDS011;6723;48.256;16.402;2024-02-14T08:48:06;11.90;;;7.17;;
13309;SDS011;6723;48.256;16.402;2024-02-14T08:50:32;9.90;;;6.57;;
13309;SDS011;6723;48.256;16.402;2024-02-14T08:52:58;11.30;;;6.73;;
13309;SDS011;6723;48.256;16.402;2024-02-14T08:55:23;11.87;;;6.60;;
13309;SDS011;6723;48.256;16.402;2024-02-14T08:57:49;7.97;;;6.10;;
13309;SDS011;6723;48.256;16.402;2024-02-14T09:00:15;11.77;;;6.50;;
13309;SDS011;6723;48.256;16.402;2024-02-14T09:02:45;13.80;;;6.50;;
13309;SDS011;6723;48.256;16.402;2024-02-14T09:05:12;11.97;;;6.87;;
13309;SDS011;6723;48.256;16.402;2024-02-14T09:07:38;10.17;;;6.40;;
13309;SDS011;6723;48.256;16.402;2024-02-14T09:10:04;9.70;;;6.00;;
13309;SDS011;6723;48.256;16.402;2024-02-14T09:12:33;12.37;;;5.67;;
13309;SDS011;6723;48.256;16.402;2024-02-14T09:14:59;8.73;;;5.67;;
13309;SDS011;6723;48.256;16.402;2024-02-14T09:17:25;10.90;;;5.80;;
13309;SDS011;6723;48.256;16.402;2024-02-14T09:19:51;9.13;;;4.93;;
13309;SDS011;6723;48.256;16.402;2024-02-14T09:22:17;7.57;;;4.43;;
13309;SDS011;6723;48.256;16.402;2024-02-14T09:24:50;10.37;;;5.07;;
13309;SDS011;6723;48.256;16.402;2024-02-14T09:27:16;8.20;;;4.77;;
13309;SDS011;6723;48.256;16.402;2024-02-14T09:29:42;13.20;;;5.50;;
13309;SDS011;6723;48.256;16.402;2024-02-14T09:32:07;7.10;;;5.27;;
13309;SDS011;6723;48.256;16.402;2024-02-14T09:34:34;9.20;;;5.03;;
13309;SDS011;6723;48.256;16.402;2024-02-14T09:36:59;10.13;;;4.40;;
13309;SDS011;6723;48.256;16.402;2024-02-14T09:39:25;15.07;;;4.87;;
13309;SDS011;6723;48.256;16.402;2024-02-14T09:41:52;10.07;;;4.43;;
13309;SDS011;6723;48.256;16.402;2024-02-14T09:44:24;9.27;;;4.45;;
13309;SDS011;6723;48.256;16.402;2024-02-14T09:46:53;7.53;;;5.13;;
13309;SDS011;6723;48.256;16.402;2024-02-14T09:49:21;10.43;;;4.65;;
13309;SDS011;6723;48.256;16.402;2024-02-14T09:51:48;10.07;;;4.53;;
13309;SDS011;6723;48.256;16.402;2024-02-14T09:54:15;9.00;;;4.00;;
13309;SDS011;6723;48.256;16.402;2024-02-14T09:56:43;8.30;;;4.47;;
13309;SDS011;6723;48.256;16.402;2024-02-14T09:59:18;9.27;;;4.65;;
13309;SDS011;6723;48.256;16.402;2024-02-14T10:01:46;8.45;;;3.90;;
13309;SDS011;6723;48.256;16.402;2024-02-14T10:04:14;10.20;;;4.32;;
13309;SDS011;6723;48.256;16.402;2024-02-14T10:06:40;4.97;;;3.83;;
13309;SDS011;6723;48.256;16.402;2024-02-14T10:09:06;9.40;;;4.20;;
13309;SDS011;6723;48.256;16.402;2024-02-14T10:11:33;8.93;;;3.77;;
13309;SDS011;6723;48.256;16.402;2024-02-14T10:13:58;10.03;;;3.87;;
13309;SDS011;6723;48.256;16.402;2024-02-14T10:16:28;12.23;;;3.28;;
13309;SDS011;6723;48.256;16.402;2024-02-14T10:18:54;5.32;;;3.15;;
13309;SDS011;6723;48.256;16.402;2024-02-14T10:21:21;8.00;;;3.30;;
13309;SDS011;6723;48.256;16.402;2024-02-14T10:23:47;6.88;;;2.58;;
13309;SDS011;6723;48.256;16.402;2024-02-14T10:26:17;6.38;;;2.75;;
13309;SDS011;6723;48.256;16.402;2024-02-14T10:28:43;3.55;;;2.40;;
13309;SDS011;6723;48.256;16.402;2024-02-14T10:31:10;3.67;;;2.30;;
13309;SDS011;6723;48.256;16.402;2024-02-14T10:33:36;5.85;;;2.35;;
13309;SDS011;6723;48.256;16.402;2024-02-14T10:36:03;2.50;;;1.80;;
13309;SDS011;6723;48.256;16.402;2024-02-14T10:38:33;3.90;;;2.00;;
13309;SDS011;6723;48.256;16.402;2024-02-14T10:40:59;3.35;;;1.90;;
13309;SDS011;6723;48.256;16.402;2024-02-14T10:43:26;3.80;;;1.70;;
13309;SDS011;6723;48.256;16.402;2024-02-14T10:45:53;8.63;;;2.10;;
13309;SDS011;6723;48.256;16.402;2024-02-14T10:48:20;2.63;;;1.63;;
13309;SDS011;6723;48.256;16.402;2024-02-14T10:50:54;3.13;;;1.75;;
13309;SDS011;6723;48.256;16.402;2024-02-14T10:53:23;3.38;;;1.80;;
13309;SDS011;6723;48.256;16.402;2024-02-14T10:55:50;3.92;;;1.67;;
13309;SDS011;6723;48.256;16.402;2024-02-14T10:58:18;2.53;;;1.50;;
13309;SDS011;6723;48.256;16.402;2024-02-14T11:00:46;5.97;;;1.60;;
13309;SDS011;6723;48.256;16.402;2024-02-14T11:03:12;4.88;;;1.52;;
13309;SDS011;6723;48.256;16.402;2024-02-14T11:05:42;3.15;;;1.65;;
13309;SDS011;6723;48.256;16.402;2024-02-14T11:08:18;3.97;;;1.67;;
13309;SDS011;6723;48.256;16.402;2024-02-14T11:10:54;2.83;;;1.70;;
13309;SDS011;6723;48.256;16.402;2024-02-14T11:13:21;4.55;;;1.70;;
13309;SDS011;6723;48.256;16.402;2024-02-14T11:15:54;3.63;;;1.83;;
13309;SDS011;6723;48.256;16.402;2024-02-14T11:18:26;4.10;;;1.70;;
13309;SDS011;6723;48.256;16.402;2024-02-14T11:20:55;2.97;;;1.52;;
13309;SDS011;6723;48.256;16.402;2024-02-14T11:23:23;4.53;;;1.63;;
13309;SDS011;6723;48.256;16.402;2024-02-14T11:25:49;3.83;;;1.90;;
13309;SDS011;6723;48.256;16.402;2024-02-14T11:30:42;3.33;;;1.70;;
13309;SDS011;6723;48.256;16.402;2024-02-14T11:33:19;2.20;;;1.70;;
13309;SDS011;6723;48.256;16.402;2024-02-14T11:35:52;5.30;;;1.92;;
13309;SDS011;6723;48.256;16.402;2024-02-14T11:38:22;3.70;;;2.05;;
13309;SDS011;6723;48.256;16.402;2024-02-14T11:40:50;3.20;;;1.53;;
13309;SDS011;6723;48.256;16.402;2024-02-14T11:43:22;4.53;;;1.70;;
13309;SDS011;6723;48.256;16.402;2024-02-14T11:45:50;3.90;;;1.93;;
13309;SDS011;6723;48.256;16.402;2024-02-14T11:48:17;5.17;;;2.40;;
13309;SDS011;6723;48.256;16.402;2024-02-14T11:50:46;4.40;;;2.20;;
13309;SDS011;6723;48.256;16.402;2024-02-14T11:53:13;4.63;;;1.90;;
13309;SDS011;6723;48.256;16.402;2024-02-14T11:55:42;5.67;;;2.53;;
13309;SDS011;6723;48.256;16.402;2024-02-14T11:58:08;4.30;;;2.33;;
13309;SDS011;6723;48.256;16.402;2024-02-14T12:00:38;4.63;;;2.40;;
13309;SDS011;6723;48.256;16.402;2024-02-14T12:03:10;4.90;;;2.17;;
13309;SDS011;6723;48.256;16.402;2024-02-14T12:05:48;4.27;;;1.90;;
13309;SDS011;6723;48.256;16.402;2024-02-14T12:08:16;7.37;;;2.50;;
13309;SDS011;6723;48.256;16.402;2024-02-14T12:10:46;7.43;;;2.40;;
13309;SDS011;6723;48.256;16.402;2024-02-14T12:13:14;4.30;;;2.20;;
13309;SDS011;6723;48.256;16.402;2024-02-14T12:15:44;3.77;;;2.23;;
13309;SDS011;6723;48.256;16.402;2024-02-14T12:18:11;3.70;;;1.90;;
13309;SDS011;6723;48.256;16.402;2024-02-14T12:20:41;3.77;;;1.93;;
13309;SDS011;6723;48.256;16.402;2024-02-14T12:23:07;6.10;;;2.00;;
13309;SDS011;6723;48.256;16.402;2024-02-14T12:25:39;3.53;;;1.87;;
13309;SDS011;6723;48.256;16.402;2024-02-14T12:28:05;6.60;;;1.70;;
13309;SDS011;6723;48.256;16.402;2024-02-14T12:30:44;3.03;;;1.50;;
13309;SDS011;6723;48.256;16.402;2024-02-14T12:33:21;3.77;;;1.70;;
13309;SDS011;6723;48.256;16.402;2024-02-14T12:35:51;3.47;;;1.97;;
13309;SDS011;6723;48.256;16.402;2024-02-14T12:38:18;6.10;;;1.90;;
13309;SDS011;6723;48.256;16.402;2024-02-14T12:40:46;4.07;;;1.90;;
13309;SDS011;6723;48.256;16.402;2024-02-14T12:43:12;4.40;;;1.60;;
13309;SDS011;6723;48.256;16.402;2024-02-14T12:45:40;5.77;;;1.90;;
13309;SDS011;6723;48.256;16.402;2024-02-14T12:48:07;4.67;;;1.73;;
13309;SDS011;6723;48.256;16.402;2024-02-14T12:50:34;4.73;;;1.77;;
13309;SDS011;6723;48.256;16.402;2024-02-14T12:53:03;2.90;;;1.97;;
13309;SDS011;6723;48.256;16.402;2024-02-14T12:55:29;5.40;;;1.70;;
13309;SDS011;6723;48.256;16.402;2024-02-14T12:57:55;3.20;;;1.70;;
13309;SDS011;6723;48.256;16.402;2024-02-14T13:00:22;3.73;;;1.80;;
13309;SDS011;6723;48.256;16.402;2024-02-14T13:02:48;5.10;;;2.00;;
13309;SDS011;6723;48.256;16.402;2024-02-14T13:05:15;5.03;;;2.40;;
13309;SDS011;6723;48.256;16.402;2024-02-14T13:07:41;3.60;;;2.23;;
13309;SDS011;6723;48.256;16.402;2024-02-14T13:10:08;6.20;;;2.20;;
13309;SDS011;6723;48.256;16.402;2024-02-14T13:12:35;5.03;;;2.33;;
13309;SDS011;6723;48.256;16.402;2024-02-14T13:15:02;6.73;;;2.20;;
13309;SDS011;6723;48.256;16.402;2024-02-14T13:17:29;5.63;;;2.13;;
13309;SDS011;6723;48.256;16.402;2024-02-14T13:19:55;5.17;;;2.23;;
13309;SDS011;6723;48.256;16.402;2024-02-14T13:22:21;4.60;;;2.03;;
13309;SDS011;6723;48.256;16.402;2024-02-14T13:24:46;2.90;;;1.80;;
13309;SDS011;6723;48.256;16.402;2024-02-14T13:27:12;5.33;;;2.27;;
13309;SDS011;6723;48.256;16.402;2024-02-14T13:29:39;4.50;;;2.23;;
13309;SDS011;6723;48.256;16.402;2024-02-14T13:32:06;7.80;;;2.00;;
13309;SDS011;6723;48.256;16.402;2024-02-14T13:34:33;8.70;;;2.70;;
13309;SDS011;6723;48.256;16.402;2024-02-14T13:36:59;10.07;;;2.53;;
13309;SDS011;6723;48.256;16.402;2024-02-14T13:39:25;22.50;;;3.30;;
13309;SDS011;6723;48.256;16.402;2024-02-14T13:41:51;8.40;;;2.83;;
13309;SDS011;6723;48.256;16.402;2024-02-14T13:44:17;8.47;;;2.43;;
13309;SDS011;6723;48.256;16.402;2024-02-14T13:46:44;16.47;;;3.03;;
13309;SDS011;6723;48.256;16.402;2024-02-14T13:49:11;6.97;;;2.53;;
13309;SDS011;6723;48.256;16.402;2024-02-14T13:51:39;6.33;;;2.30;;
13309;SDS011;6723;48.256;16.402;2024-02-14T13:54:05;9.47;;;2.50;;
13309;SDS011;6723;48.256;16.402;2024-02-14T13:56:32;4.60;;;2.00;;
13309;SDS011;6723;48.256;16.402;2024-02-14T13:58:57;2.80;;;1.40;;
13309;SDS011;6723;48.256;16.402;2024-02-14T14:01:24;1.93;;;1.10;;
13309;SDS011;6723;48.256;16.402;2024-02-14T14:03:51;1.23;;;1.00;;
13309;SDS011;6723;48.256;16.402;2024-02-14T14:06:20;2.00;;;1.20;;
13309;SDS011;6723;48.256;16.402;2024-02-14T14:08:49;2.10;;;1.20;;
13309;SDS011;6723;48.256;16.402;2024-02-14T14:11:15;4.63;;;1.37;;
13309;SDS011;6723;48.256;16.402;2024-02-14T14:13:41;1.47;;;1.00;;
13309;SDS011;6723;48.256;16.402;2024-02-14T14:16:07;3.80;;;1.23;;
13309;SDS011;6723;48.256;16.402;2024-02-14T14:18:34;1.83;;;1.00;;
13309;SDS011;6723;48.256;16.402;2024-02-14T14:21:00;3.37;;;1.00;;
13309;SDS011;6723;48.256;16.402;2024-02-14T14:23:26;3.00;;;1.20;;
13309;SDS011;6723;48.256;16.402;2024-02-14T14:25:52;2.73;;;1.30;;
13309;SDS011;6723;48.256;16.402;2024-02-14T14:28:18;2.03;;;1.13;;
13309;SDS011;6723;48.256;16.402;2024-02-14T14:30:49;4.13;;;1.30;;
13309;SDS011;6723;48.256;16.402;2024-02-14T14:33:21;2.90;;;1.20;;
13309;SDS011;6723;48.256;16.402;2024-02-14T14:35:47;3.53;;;1.17;;
13309;SDS011;6723;48.256;16.402;2024-02-14T14:38:18;2.50;;;1.27;;
13309;SDS011;6723;48.256;16.402;2024-02-14T14:40:45;3.73;;;1.30;;
13309;SDS011;6723;48.256;16.402;2024-02-14T14:43:12;2.50;;;1.33;;
13309;SDS011;6723;48.256;16.402;2024-02-14T14:45:38;2.70;;;1.20;;
13309;SDS011;6723;48.256;16.402;2024-02-14T14:48:07;3.27;;;1.20;;